createdAt,value
2022-10-22T00:03:55.161Z,66.67
2022-10-22T00:08:57.999Z,63.08
2022-10-22T00:14:00.590Z,61.56
2022-10-22T00:19:03.313Z,60.02
2022-10-22T00:24:05.829Z,57.11
2022-10-22T00:29:08.454Z,58.53
2022-10-22T00:34:11.017Z,62.44
2022-10-22T00:39:18.705Z,66.27
2022-10-22T00:44:58.721Z,64.44
2022-10-22T00:55:06.950Z,61.02
2022-10-22T01:00:10.183Z,60.32
2022-10-22T01:05:12.789Z,59.50
2022-10-22T01:10:34.594Z,56.62
2022-10-22T01:15:43.545Z,58.38
2022-10-22T01:20:58.232Z,60.38
2022-10-22T01:26:10.446Z,67.28
2022-10-22T01:31:15.828Z,66.87
2022-10-22T01:36:19.293Z,64.51
2022-10-22T01:41:21.743Z,63.13
2022-10-22T01:46:27.399Z,62.27
2022-10-22T01:51:39.590Z,60.90
2022-10-22T01:57:07.340Z,60.33
2022-10-22T02:02:28.477Z,59.74
2022-10-22T02:07:37.160Z,57.36
2022-10-22T02:12:43.071Z,58.97
2022-10-22T02:17:47.202Z,65.50
2022-10-22T02:22:49.994Z,66.52
2022-10-22T02:28:06.054Z,64.56
2022-10-22T02:33:17.790Z,63.23
2022-10-22T02:38:21.758Z,62.50
2022-10-22T02:43:24.874Z,61.88
2022-10-22T02:48:27.904Z,61.55
2022-10-22T02:53:30.379Z,61.04
2022-10-22T02:58:32.833Z,60.56
2022-10-22T03:03:35.241Z,60.06
2022-10-22T03:08:37.708Z,59.77
2022-10-22T03:13:40.154Z,57.59
2022-10-22T03:18:42.574Z,57.85
2022-10-22T03:23:45.005Z,60.76
2022-10-22T03:28:48.643Z,67.76
2022-10-22T03:33:51.920Z,68.18
2022-10-22T03:38:54.878Z,66.08
2022-10-22T03:43:57.800Z,64.43
2022-10-22T03:49:00.221Z,63.27
2022-10-22T03:54:03.745Z,62.42
2022-10-22T03:59:06.189Z,62.05
2022-10-22T04:04:08.588Z,61.46
2022-10-22T04:09:11.032Z,60.96
2022-10-22T04:14:13.615Z,60.59
2022-10-22T04:19:16.576Z,60.56
2022-10-22T04:24:19.006Z,60.27
2022-10-22T04:29:22.299Z,60.21
2022-10-22T04:34:28.646Z,60.18
2022-10-22T04:39:31.196Z,60.31
2022-10-22T04:44:33.652Z,60.21
2022-10-22T04:49:36.213Z,60.30
2022-10-22T04:54:38.640Z,60.02
2022-10-22T04:59:41.149Z,59.97
2022-10-22T05:04:44.357Z,59.76
2022-10-22T05:09:46.817Z,59.91
2022-10-22T05:14:49.253Z,60.05
2022-10-22T05:19:51.699Z,60.44
2022-10-22T05:24:54.066Z,60.50
2022-10-22T05:29:56.767Z,60.53
2022-10-22T05:34:59.546Z,60.37
2022-10-22T05:40:12.749Z,60.32
2022-10-22T05:45:24.938Z,60.11
2022-10-22T05:50:27.420Z,59.95
2022-10-22T05:55:29.945Z,60.10
2022-10-22T06:00:34.299Z,60.07
2022-10-22T06:05:37.751Z,59.91
2022-10-22T06:10:43.574Z,60.21
2022-10-22T06:15:45.983Z,60.29
2022-10-22T06:20:48.435Z,60.40
2022-10-22T06:25:58.802Z,60.63
2022-10-22T06:31:03.041Z,60.66
2022-10-22T06:36:14.980Z,60.47
2022-10-22T06:41:17.710Z,60.52
2022-10-22T06:46:21.591Z,60.22
2022-10-22T06:51:25.108Z,60.17
2022-10-22T06:56:29.389Z,59.88
2022-10-22T07:01:34.127Z,58.20
2022-10-22T07:06:37.008Z,59.27
2022-10-22T07:11:44.907Z,65.07
2022-10-22T07:16:47.599Z,65.19
2022-10-22T07:21:50.240Z,63.52
2022-10-22T07:26:52.880Z,62.90
2022-10-22T07:31:55.798Z,62.60
2022-10-22T07:36:58.255Z,62.68
2022-10-22T07:42:00.720Z,62.37
2022-10-22T07:47:03.329Z,62.27
2022-10-22T07:52:08.059Z,62.08
2022-10-22T07:57:10.473Z,62.12
2022-10-22T08:02:13.231Z,62.01
2022-10-22T08:07:16.158Z,62.12
2022-10-22T08:12:18.774Z,62.32
2022-10-22T08:17:21.210Z,62.01
2022-10-22T08:22:24.024Z,61.85
2022-10-22T08:27:26.616Z,62.08
2022-10-22T08:32:29.794Z,62.04
2022-10-22T08:37:32.754Z,62.07
2022-10-22T08:42:46.947Z,62.56
2022-10-22T08:48:11.880Z,62.69
2022-10-22T08:53:19.066Z,62.61
2022-10-22T08:58:43.573Z,63.09
2022-10-22T09:03:57.330Z,63.12
2022-10-22T09:09:01.229Z,63.66
2022-10-22T09:14:04.982Z,63.90
2022-10-22T09:19:35.845Z,63.85
2022-10-22T09:24:47.467Z,64.11
2022-10-22T09:29:50.129Z,62.86
2022-10-22T09:34:57.198Z,62.71
2022-10-22T09:40:05.258Z,62.56
2022-10-22T09:45:20.054Z,62.82
2022-10-22T09:50:41.278Z,62.81
2022-10-22T09:55:44.713Z,62.80
2022-10-22T10:00:53.350Z,62.42
2022-10-22T10:06:01.585Z,61.91
2022-10-22T10:11:29.058Z,61.72
2022-10-22T10:16:59.238Z,61.51
2022-10-22T10:22:16.713Z,61.57
2022-10-22T10:27:43.012Z,61.70
2022-10-22T10:33:09.473Z,61.74
2022-10-22T10:38:36.885Z,61.72
2022-10-22T10:43:48.298Z,61.54
2022-10-22T10:49:01.038Z,61.28
2022-10-22T10:54:22.417Z,62.06
2022-10-22T10:59:49.806Z,62.17
2022-10-22T11:05:19.898Z,62.52
2022-10-22T11:11:00.817Z,62.38
2022-10-22T11:16:40.868Z,62.46
2022-10-22T11:21:50.841Z,62.20
2022-10-22T11:27:15.401Z,62.04
2022-10-22T11:32:21.138Z,61.68
2022-10-22T11:37:30.464Z,61.28
2022-10-22T11:42:45.044Z,62.11
2022-10-22T11:47:53.662Z,63.03
2022-10-22T11:53:07.703Z,63.81
2022-10-22T11:58:28.596Z,64.40
2022-10-22T12:03:31.223Z,64.18
2022-10-22T12:08:34.216Z,63.95
2022-10-22T12:14:14.741Z,64.54
2022-10-22T12:19:23.113Z,65.18
2022-10-22T12:24:31.488Z,65.64
2022-10-22T12:29:34.079Z,64.83
2022-10-22T12:34:46.744Z,64.64
2022-10-22T12:39:49.198Z,64.85
2022-10-22T12:44:56.464Z,64.55
2022-10-22T12:49:58.892Z,64.87
2022-10-22T12:55:08.223Z,65.16
2022-10-22T13:00:32.937Z,64.99
2022-10-22T13:05:41.556Z,65.69
2022-10-22T13:10:54.125Z,65.66
2022-10-22T13:15:56.935Z,65.66
2022-10-22T13:21:03.143Z,65.57
2022-10-22T13:26:16.798Z,66.11
2022-10-22T13:31:23.418Z,66.02
2022-10-22T13:36:26.171Z,65.65
2022-10-22T13:41:32.126Z,65.71
2022-10-22T13:46:40.429Z,65.38
2022-10-22T13:51:43.858Z,65.35
2022-10-22T13:56:47.055Z,65.69
2022-10-22T14:01:49.562Z,65.57
2022-10-22T14:06:52.191Z,65.52
2022-10-22T14:11:54.878Z,65.44
2022-10-22T14:16:57.304Z,65.33
2022-10-22T14:22:00.297Z,65.31
2022-10-22T14:27:02.826Z,65.02
2022-10-22T14:32:14.366Z,65.12
2022-10-22T14:37:19.569Z,65.18
2022-10-22T14:42:22.026Z,65.09
2022-10-22T14:47:24.443Z,64.93
2022-10-22T14:52:26.868Z,64.51
2022-10-22T14:57:29.373Z,64.56
2022-10-22T15:02:31.816Z,64.66
2022-10-22T15:07:34.639Z,64.48
2022-10-22T15:12:37.556Z,64.09
2022-10-22T15:17:40.301Z,64.46
2022-10-22T15:22:43.543Z,64.34
2022-10-22T15:27:50.316Z,64.90
2022-10-22T15:32:54.317Z,64.91
2022-10-22T15:37:56.756Z,65.03
2022-10-22T15:42:59.174Z,65.66
2022-10-22T15:48:01.807Z,65.57
2022-10-22T15:53:04.354Z,65.67
2022-10-22T15:58:07.153Z,65.72
2022-10-22T16:03:09.607Z,66.33
2022-10-22T16:08:12.141Z,66.49
2022-10-22T16:13:15.845Z,66.57
2022-10-22T16:18:19.347Z,66.59
2022-10-22T16:23:22.804Z,66.31
2022-10-22T16:28:25.312Z,66.45
2022-10-22T16:33:27.856Z,66.46
2022-10-22T16:38:30.310Z,66.30
2022-10-22T16:43:32.769Z,66.34
2022-10-22T16:48:37.709Z,66.35
2022-10-22T16:53:40.441Z,66.92
2022-10-22T16:58:52.108Z,67.01
2022-10-22T17:03:55.121Z,66.96
2022-10-22T17:08:57.740Z,67.07
2022-10-22T17:14:02.496Z,67.28
2022-10-22T17:19:05.489Z,67.28
2022-10-22T17:24:08.073Z,67.25
2022-10-22T17:29:12.101Z,66.94
2022-10-22T17:34:16.675Z,66.49
2022-10-22T17:39:20.167Z,66.52
2022-10-22T17:44:22.646Z,66.67
2022-10-22T17:49:25.144Z,66.39
2022-10-22T17:54:27.578Z,66.43
2022-10-22T17:59:30.058Z,66.37
2022-10-22T18:04:33.956Z,66.31
2022-10-22T18:09:37.112Z,66.44
2022-10-22T18:14:40.486Z,66.27
2022-10-22T18:19:42.920Z,66.05
2022-10-22T18:24:45.364Z,65.84
2022-10-22T18:29:49.798Z,65.95
2022-10-22T18:34:52.219Z,66.14
2022-10-22T18:39:54.641Z,65.94
2022-10-22T18:44:57.143Z,65.88
2022-10-22T18:49:59.615Z,65.45
2022-10-22T18:55:02.139Z,64.99
2022-10-22T19:00:05.685Z,64.92
2022-10-22T19:05:09.075Z,64.49
2022-10-22T19:10:14.916Z,64.56
2022-10-22T19:15:17.784Z,64.28
2022-10-22T19:20:20.472Z,64.63
2022-10-22T19:25:24.099Z,64.80
2022-10-22T19:30:26.759Z,64.54
2022-10-22T19:35:29.575Z,64.37
2022-10-22T19:40:32.033Z,64.77
2022-10-22T19:45:35.796Z,64.70
2022-10-22T19:50:38.451Z,64.46
2022-10-22T19:55:45.138Z,64.57
2022-10-22T20:00:47.678Z,64.51
2022-10-22T20:05:51.213Z,64.15
2022-10-22T20:10:53.834Z,64.25
2022-10-22T20:15:56.982Z,64.75
2022-10-22T20:21:03.674Z,64.62
2022-10-22T20:26:06.251Z,64.58
2022-10-22T20:31:14.909Z,64.91
2022-10-22T20:36:20.540Z,65.20
2022-10-22T20:41:23.406Z,64.97
2022-10-22T20:46:29.428Z,64.62
2022-10-22T20:51:32.665Z,64.27
2022-10-22T20:56:39.967Z,64.20
2022-10-22T21:02:01.203Z,64.33
2022-10-22T21:07:04.275Z,64.75
2022-10-22T21:12:06.822Z,65.02
2022-10-22T21:17:09.396Z,64.80
2022-10-22T21:22:11.830Z,64.86
2022-10-22T21:27:14.358Z,65.29
2022-10-22T21:32:16.804Z,65.49
2022-10-22T21:37:19.780Z,65.47
2022-10-22T21:42:22.549Z,65.39
2022-10-22T21:47:25.086Z,65.19
2022-10-22T21:52:27.702Z,64.87
2022-10-22T21:57:30.132Z,64.56
2022-10-22T22:02:32.610Z,64.62
2022-10-22T22:07:35.059Z,64.61
2022-10-22T22:12:37.517Z,64.33
2022-10-22T22:17:40.011Z,64.32
2022-10-22T22:22:43.471Z,64.27
2022-10-22T22:27:46.142Z,64.33
2022-10-22T22:32:48.637Z,64.16
2022-10-22T22:37:51.866Z,64.02
2022-10-22T22:42:54.559Z,63.90
2022-10-22T22:47:57.126Z,63.70
2022-10-22T22:52:59.533Z,63.95
2022-10-22T22:58:01.950Z,64.03
2022-10-22T23:03:04.582Z,64.15
2022-10-22T23:08:06.992Z,64.33
2022-10-22T23:13:09.454Z,64.51
2022-10-22T23:18:11.828Z,64.42
2022-10-22T23:23:14.559Z,64.50
2022-10-22T23:28:17.015Z,64.61
2022-10-22T23:33:19.580Z,64.75
2022-10-22T23:38:22.298Z,64.50
2022-10-22T23:43:25.721Z,64.47
2022-10-22T23:48:28.402Z,64.22
2022-10-22T23:53:30.780Z,64.25
2022-10-22T23:58:34.977Z,63.88
